Time;durP1;ratioP1;P1;durP2;ratioP2;P2;SDS_P1;SDS_P2;PMS_P1;PMS_P2;Temp;Humidity;BMP_temperature;BMP_pressure;BME280_temperature;BME280_humidity;BME280_pressure;Samples;Min_cycle;Max_cycle;Signal;HPM_P1;HPM_P2
2021/06/30 00:02:23;;;;;;;20.42;14.95;;;;;;;18.87;98.24;100500.31;5037446;28;20033;-70
2021/06/30 00:04:48;;;;;;;21.15;14.50;;;;;;;19.02;96.21;100489.19;5037684;28;20100;-70
2021/06/30 00:07:14;;;;;;;20.92;15.30;;;;;;;18.93;95.73;100484.72;5037517;28;20364;-71
2021/06/30 00:09:40;;;;;;;27.13;15.38;;;;;;;18.93;96.20;100484.72;5054933;28;20021;-70
2021/06/30 00:12:05;;;;;;;24.55;14.70;;;;;;;18.89;96.99;100488.16;5054901;28;20036;-70
2021/06/30 00:14:31;;;;;;;19.08;14.77;;;;;;;18.98;95.66;100482.19;5055333;28;20021;-70
2021/06/30 00:16:57;;;;;;;19.30;15.68;;;;;;;18.94;95.55;100475.13;5037220;28;20037;-70
2021/06/30 00:19:24;;;;;;;22.58;15.77;;;;;;;18.87;95.93;100474.22;5054687;28;20025;-70
2021/06/30 00:21:50;;;;;;;20.63;15.10;;;;;;;18.84;95.79;100476.78;5054727;28;20102;-70
2021/06/30 00:24:16;;;;;;;22.67;14.88;;;;;;;18.81;96.07;100479.34;5037203;28;20029;-70
2021/06/30 00:26:41;;;;;;;20.23;15.93;;;;;;;18.80;96.07;100477.59;5037529;28;20028;-70
2021/06/30 00:29:07;;;;;;;19.38;15.02;;;;;;;18.80;96.14;100478.47;5036847;28;20021;-70
2021/06/30 00:31:33;;;;;;;19.75;14.57;;;;;;;18.80;95.81;100478.47;5054684;28;20017;-72
2021/06/30 00:34:03;;;;;;;21.75;15.05;;;;;;;18.84;95.62;100474.16;5037222;28;20549;-71
2021/06/30 00:36:43;;;;;;;21.27;16.35;;;;;;;18.82;95.52;100471.53;5037456;28;20021;-70
2021/06/30 00:39:08;;;;;;;20.55;16.17;;;;;;;18.77;96.21;100472.34;5037338;28;20385;-70
2021/06/30 00:41:33;;;;;;;22.15;16.65;;;;;;;18.76;95.94;100460.16;5020348;28;20033;-71
2021/06/30 00:43:59;;;;;;;20.48;14.68;;;;;;;18.76;95.98;100460.16;5055170;28;20108;-70
2021/06/30 00:46:29;;;;;;;22.35;15.63;;;;;;;18.72;97.11;100458.38;5054247;28;20083;-70
2021/06/30 00:48:55;;;;;;;19.48;15.52;;;;;;;18.74;96.99;100456.66;5036944;28;20370;-70
2021/06/30 00:51:21;;;;;;;22.85;16.15;;;;;;;18.71;97.17;100461.81;5036646;28;20110;-71
2021/06/30 00:53:47;;;;;;;22.10;15.25;;;;;;;18.64;97.22;100461.75;5054408;28;20374;-70
2021/06/30 00:56:13;;;;;;;20.40;14.20;;;;;;;18.51;98.27;100454.59;5019673;28;20025;-71
2021/06/30 00:58:40;;;;;;;22.23;13.73;;;;;;;18.48;97.97;100454.53;5036259;28;20032;-70
2021/06/30 01:01:06;;;;;;;17.67;14.57;;;;;;;18.37;100.00;100452.66;5036183;28;20025;-70
2021/06/30 01:03:31;;;;;;;17.63;13.50;;;;;;;18.45;98.40;100447.56;5054015;28;20021;-71
2021/06/30 01:05:57;;;;;;;19.60;13.55;;;;;;;18.53;98.33;100455.50;5054053;28;20047;-70
2021/06/30 01:08:22;;;;;;;16.45;12.13;;;;;;;18.44;97.62;100450.16;5053916;28;20039;-71
2021/06/30 01:10:48;;;;;;;16.13;12.93;;;;;;;18.40;97.88;100452.72;5035721;28;20040;-70
2021/06/30 01:13:13;;;;;;;14.65;13.05;;;;;;;18.43;97.20;100451.00;5051716;28;20110;-70
2021/06/30 01:15:55;;;;;;;16.33;12.82;;;;;;;18.35;97.31;100443.94;5032377;28;20115;-70
2021/06/30 01:18:31;;;;;;;16.35;13.13;;;;;;;18.33;97.55;100440.44;5032791;28;20379;-71
2021/06/30 01:20:58;;;;;;;14.52;12.30;;;;;;;18.35;97.56;100443.94;5032181;28;20415;-71
2021/06/30 01:23:24;;;;;;;15.95;13.40;;;;;;;18.34;98.28;100446.56;5032169;28;20491;-70
2021/06/30 01:25:50;;;;;;;13.88;12.18;;;;;;;18.33;97.40;100440.44;5032151;28;20044;-71
2021/06/30 01:28:16;;;;;;;15.95;12.45;;;;;;;18.32;97.63;100443.91;5033724;28;20036;-71
2021/06/30 01:30:43;;;;;;;15.60;13.10;;;;;;;18.34;97.89;100442.19;5032534;28;20032;-71
2021/06/30 01:33:09;;;;;;;16.05;13.55;;;;;;;18.42;97.01;100438.81;5033234;28;20108;-70
2021/06/30 01:35:35;;;;;;;15.48;13.45;;;;;;;18.39;97.20;100440.53;5033169;28;20498;-71
2021/06/30 01:38:01;;;;;;;14.70;12.63;;;;;;;18.47;97.27;100438.03;5032523;28;20029;-71
2021/06/30 01:40:27;;;;;;;17.52;13.02;;;;;;;18.49;96.70;100440.66;5032306;28;20087;-71
2021/06/30 01:42:55;;;;;;;14.55;12.75;;;;;;;18.48;96.73;100444.13;5032838;28;20036;-71
2021/06/30 01:45:22;;;;;;;16.30;13.60;;;;;;;18.46;96.80;100440.63;5032269;28;20051;-70
2021/06/30 01:47:47;;;;;;;14.10;12.43;;;;;;;18.48;96.42;100444.13;5033162;28;20099;-70
2021/06/30 01:50:14;;;;;;;15.32;13.18;;;;;;;18.51;96.00;100449.38;5048894;28;20255;-70
2021/06/30 01:52:40;;;;;;;16.05;13.43;;;;;;;18.50;95.97;100458.06;5038106;28;20029;-70
2021/06/30 01:55:07;;;;;;;15.73;13.68;;;;;;;18.52;95.93;100448.50;5032277;28;20033;-70
2021/06/30 01:57:32;;;;;;;15.93;13.55;;;;;;;18.53;95.15;100452.88;5031748;28;20036;-71
2021/06/30 01:59:58;;;;;;;16.17;13.18;;;;;;;18.52;95.38;100456.34;5015193;28;20021;-71
2021/06/30 02:02:28;;;;;;;17.63;13.07;;;;;;;18.56;94.69;100452.94;5035170;28;20449;-70
2021/06/30 02:04:59;;;;;;;15.73;13.00;;;;;;;18.46;95.64;100456.25;5033639;28;20033;-71
2021/06/30 02:07:25;;;;;;;15.52;13.15;;;;;;;18.45;96.44;100459.72;5032000;28;20482;-70
2021/06/30 02:09:51;;;;;;;17.73;13.20;;;;;;;18.48;95.73;100459.75;5015426;28;20029;-70
2021/06/30 02:12:16;;;;;;;20.98;12.85;;;;;;;18.42;95.63;100464.91;5031975;28;20038;-70
2021/06/30 02:14:42;;;;;;;20.75;12.95;;;;;;;18.42;95.34;100464.91;5046726;28;20029;-71
2021/06/30 02:17:07;;;;;;;15.00;12.70;;;;;;;18.43;95.01;100466.66;5052268;28;20036;-70
2021/06/30 02:19:33;;;;;;;16.35;12.73;;;;;;;18.42;94.72;100459.69;5035063;28;20051;-70
2021/06/30 02:21:58;;;;;;;15.32;12.27;;;;;;;18.46;93.20;100466.69;5034331;28;20027;-71
2021/06/30 02:24:24;;;;;;;16.23;13.15;;;;;;;18.31;95.12;100470.84;5034779;28;20033;-71
2021/06/30 02:26:49;;;;;;;15.57;12.77;;;;;;;18.31;95.48;100473.44;5052933;28;20029;-70
2021/06/30 02:29:14;;;;;;;16.65;12.00;;;;;;;18.37;95.33;100468.31;5035185;28;20063;-71
2021/06/30 02:31:40;;;;;;;16.05;13.55;;;;;;;18.32;95.21;100475.19;5033706;28;20092;-70
2021/06/30 02:34:05;;;;;;;18.48;13.07;;;;;;;18.35;95.92;100469.16;5034704;28;20036;-71
2021/06/30 02:36:31;;;;;;;14.60;13.00;;;;;;;18.38;95.29;100470.06;5048752;28;20040;-72
2021/06/30 02:38:59;;;;;;;16.38;12.80;;;;;;;18.37;95.79;100462.25;5072676;28;20020;-73
2021/06/30 02:41:25;;;;;;;17.67;13.80;;;;;;;18.32;96.54;100464.75;5052487;28;20033;-72
2021/06/30 02:43:50;;;;;;;17.55;13.32;;;;;;;18.37;96.15;100457.88;5034883;28;20070;-72
2021/06/30 02:46:16;;;;;;;17.85;13.00;;;;;;;18.35;96.18;100454.38;5034843;28;20025;-72
2021/06/30 02:48:42;;;;;;;18.00;13.27;;;;;;;18.33;96.91;100450.00;5034689;28;20052;-73
2021/06/30 02:51:07;;;;;;;19.27;13.25;;;;;;;18.36;95.34;100450.91;5052472;28;20060;-74
2021/06/30 02:53:33;;;;;;;16.40;13.88;;;;;;;18.34;95.86;100443.94;5052630;28;20109;-72
2021/06/30 02:56:01;;;;;;;17.40;13.80;;;;;;;18.35;95.52;100443.94;5052866;28;20032;-72
2021/06/30 02:58:28;;;;;;;18.17;13.53;;;;;;;18.35;94.35;100438.75;5051874;28;20109;-72
2021/06/30 03:00:53;;;;;;;21.58;15.82;;;;;;;18.35;95.03;100448.31;5052050;28;20057;-72
2021/06/30 03:03:19;;;;;;;17.98;14.63;;;;;;;18.35;94.76;100443.94;5052220;28;20083;-73
2021/06/30 03:05:44;;;;;;;22.83;14.25;;;;;;;18.36;94.77;100437.88;5017925;28;20098;-72
2021/06/30 03:08:10;;;;;;;18.63;14.27;;;;;;;18.44;94.99;100437.09;5034553;28;20033;-72
2021/06/30 03:10:35;;;;;;;19.45;15.60;;;;;;;18.49;95.53;100440.66;5051882;28;20033;-73
2021/06/30 03:13:00;;;;;;;19.02;14.80;;;;;;;18.48;94.36;100438.91;5017851;28;20028;-72
2021/06/30 03:15:26;;;;;;;18.58;14.52;;;;;;;18.49;94.71;100440.66;5052016;28;20041;-71
2021/06/30 03:17:51;;;;;;;20.13;15.90;;;;;;;18.57;94.42;100444.28;5034498;28;20056;-71
2021/06/30 03:20:17;;;;;;;23.80;16.83;;;;;;;18.56;93.97;100437.31;5052027;28;20112;-71
2021/06/30 03:22:43;;;;;;;26.58;17.08;;;;;;;18.58;93.94;100430.38;5052205;28;20059;-71
2021/06/30 03:25:10;;;;;;;22.40;16.45;;;;;;;18.58;93.05;100432.09;5052464;28;20037;-70
2021/06/30 03:27:37;;;;;;;26.67;17.48;;;;;;;18.60;93.02;100433.88;5050846;28;20115;-70
2021/06/30 03:30:05;;;;;;;22.75;17.40;;;;;;;18.61;94.09;100440.84;5034115;28;20470;-70
2021/06/30 03:32:31;;;;;;;23.75;17.75;;;;;;;18.65;93.63;100436.53;5033825;28;20029;-71
2021/06/30 03:34:56;;;;;;;25.73;18.05;;;;;;;18.61;94.23;100446.06;5052279;28;20025;-71
2021/06/30 03:37:22;;;;;;;27.63;18.27;;;;;;;18.64;94.74;100446.09;5034117;28;20032;-71
2021/06/30 03:39:48;;;;;;;28.70;19.60;;;;;;;18.62;94.90;100447.81;5033894;28;20040;-70
2021/06/30 03:42:13;;;;;;;25.85;17.98;;;;;;;18.68;94.26;100450.50;5033631;28;20040;-70
2021/06/30 03:44:39;;;;;;;27.98;19.33;;;;;;;18.74;94.63;100452.28;5037814;28;20029;-70
2021/06/30 03:47:04;;;;;;;31.00;20.15;;;;;;;18.84;93.88;100448.06;5055684;28;20024;-70
2021/06/30 03:49:29;;;;;;;31.80;20.30;;;;;;;18.74;93.58;100446.22;5055626;28;20174;-70
2021/06/30 03:51:55;;;;;;;27.15;18.80;;;;;;;18.74;93.94;100446.22;5037238;28;20033;-70
2021/06/30 03:54:24;;;;;;;31.77;19.73;;;;;;;18.76;93.75;100460.16;5055053;28;20037;-70
2021/06/30 03:56:53;;;;;;;29.95;19.65;;;;;;;18.67;94.11;100450.47;5038142;28;20021;-70
2021/06/30 03:59:20;;;;;;;34.78;19.05;;;;;;;18.68;94.33;100447.88;5037414;28;20029;-70
2021/06/30 04:01:46;;;;;;;31.80;19.23;;;;;;;18.75;94.46;100447.97;5037196;28;20031;-71
2021/06/30 04:04:13;;;;;;;32.00;20.55;;;;;;;18.75;94.68;100442.75;5037361;28;20532;-71
2021/06/30 04:06:40;;;;;;;30.67;20.05;;;;;;;18.79;94.09;100444.53;5054926;28;20032;-71
2021/06/30 04:09:05;;;;;;;32.03;20.60;;;;;;;18.82;94.06;100444.56;5037396;28;20113;-71
2021/06/30 04:11:31;;;;;;;30.20;19.17;;;;;;;18.79;93.95;100448.00;5055134;28;20056;-71
2021/06/30 04:13:57;;;;;;;29.35;18.38;;;;;;;18.77;93.33;100451.47;5054605;28;20029;-71
2021/06/30 04:16:22;;;;;;;31.00;19.38;;;;;;;18.72;93.26;100448.78;5054738;28;20135;-70
2021/06/30 04:18:48;;;;;;;29.55;18.42;;;;;;;18.82;92.68;100445.44;5054795;28;20036;-70
2021/06/30 04:21:13;;;;;;;26.40;18.25;;;;;;;18.88;92.34;100449.88;5054992;28;20027;-70
2021/06/30 04:23:39;;;;;;;27.55;18.50;;;;;;;18.91;91.49;100455.13;5036824;28;20037;-70
2021/06/30 04:26:05;;;;;;;27.65;18.80;;;;;;;18.91;91.58;100460.34;5036625;28;20052;-70
2021/06/30 04:28:31;;;;;;;25.38;17.35;;;;;;;18.86;92.10;100456.81;5054691;28;20036;-71
2021/06/30 04:30:57;;;;;;;26.55;18.63;;;;;;;18.81;92.44;100456.72;5056867;28;20025;-70
2021/06/30 04:33:23;;;;;;;28.33;18.38;;;;;;;18.84;93.28;100458.50;5055106;28;20469;-71
2021/06/30 04:35:49;;;;;;;26.92;18.98;;;;;;;18.92;92.97;100451.66;5055383;28;20450;-71
2021/06/30 04:38:14;;;;;;;31.30;19.67;;;;;;;18.95;92.52;100456.91;5055780;28;20354;-71
2021/06/30 04:40:39;;;;;;;33.10;19.95;;;;;;;19.00;91.82;100454.38;5063305;28;20116;-70
2021/06/30 04:43:05;;;;;;;31.77;20.95;;;;;;;18.96;91.88;100453.44;5052581;28;20036;-70
2021/06/30 04:45:30;;;;;;;34.70;20.98;;;;;;;19.04;91.53;100452.69;5035322;28;20167;-70
2021/06/30 04:47:56;;;;;;;36.05;21.63;;;;;;;19.14;90.80;100446.69;5053456;28;20028;-70
2021/06/30 04:50:21;;;;;;;37.97;21.80;;;;;;;19.12;90.46;100443.19;5053884;28;20070;-70
2021/06/30 04:52:47;;;;;;;39.25;21.70;;;;;;;19.09;90.81;100443.16;5035767;28;20538;-71
2021/06/30 04:55:12;;;;;;;38.35;21.98;;;;;;;19.13;90.63;100444.94;5053207;28;20118;-71
2021/06/30 04:57:38;;;;;;;47.38;24.50;;;;;;;19.12;90.46;100453.66;5036282;28;20032;-70
2021/06/30 05:00:06;;;;;;;46.70;23.17;;;;;;;19.09;91.00;100451.00;5019418;28;20079;-70
2021/06/30 05:02:31;;;;;;;45.28;23.25;;;;;;;19.09;90.71;100453.59;5052352;28;20028;-71
2021/06/30 05:04:57;;;;;;;54.10;25.73;;;;;;;19.16;89.99;100465.00;5041268;28;20039;-71
2021/06/30 05:07:22;;;;;;;52.30;25.33;;;;;;;19.10;89.56;100460.59;5037722;28;20051;-71
2021/06/30 05:09:48;;;;;;;60.95;28.60;;;;;;;19.11;88.30;100462.34;5035589;28;20021;-70
2021/06/30 05:12:13;;;;;;;61.80;27.40;;;;;;;19.13;89.10;100460.63;5051863;28;20036;-71
2021/06/30 05:14:39;;;;;;;51.08;25.25;;;;;;;18.90;89.25;100463.81;5053379;28;20028;-71
2021/06/30 05:17:05;;;;;;;58.35;26.13;;;;;;;19.01;88.44;100460.47;5052302;28;20041;-71
2021/06/30 05:19:31;;;;;;;56.88;26.58;;;;;;;19.06;89.34;100466.63;5053727;28;20071;-71
2021/06/30 05:21:56;;;;;;;57.95;27.73;;;;;;;19.21;89.07;100463.31;5052506;28;20033;-70
2021/06/30 05:24:23;;;;;;;63.95;28.63;;;;;;;19.19;88.51;100455.47;5053524;28;20021;-71
2021/06/30 05:26:50;;;;;;;63.08;27.77;;;;;;;19.25;88.38;100458.13;5052375;28;20140;-71
2021/06/30 05:29:16;;;;;;;75.35;30.77;;;;;;;19.30;87.90;100452.97;5051981;28;20486;-71
2021/06/30 05:31:42;;;;;;;69.93;30.98;;;;;;;19.39;88.22;100452.16;5052254;28;20024;-71
2021/06/30 05:34:09;;;;;;;69.97;30.88;;;;;;;19.52;87.73;100448.81;5052300;28;20021;-71
2021/06/30 05:36:34;;;;;;;66.35;29.73;;;;;;;19.66;86.66;100450.72;5052271;28;20024;-71
2021/06/30 05:38:59;;;;;;;63.25;29.20;;;;;;;19.71;85.79;100449.88;5053385;28;20099;-71
2021/06/30 05:41:25;;;;;;;73.82;32.72;;;;;;;19.79;83.88;100447.34;5053344;28;20489;-71
2021/06/30 05:43:51;;;;;;;66.80;31.20;;;;;;;19.84;83.67;100440.41;5052073;28;20025;-71
2021/06/30 05:46:18;;;;;;;65.53;30.30;;;;;;;19.84;84.32;100435.19;5052187;28;20087;-71
2021/06/30 05:48:44;;;;;;;65.03;30.42;;;;;;;19.84;84.19;100435.19;5051512;28;20032;-71
2021/06/30 05:51:11;;;;;;;67.72;31.55;;;;;;;19.95;82.89;100443.09;5051776;28;20120;-71
2021/06/30 05:53:37;;;;;;;65.55;31.27;;;;;;;20.08;82.96;100433.63;5053443;28;20033;-71
2021/06/30 05:56:03;;;;;;;78.20;34.28;;;;;;;20.10;82.18;100437.13;5053065;28;20378;-71
2021/06/30 05:58:29;;;;;;;70.15;32.30;;;;;;;19.95;83.09;100435.28;5051789;28;20107;-71
2021/06/30 06:00:55;;;;;;;74.68;33.47;;;;;;;19.94;83.13;100435.28;5052703;28;20025;-71
2021/06/30 06:03:21;;;;;;;75.68;34.25;;;;;;;20.00;83.31;100435.31;5051821;28;20393;-70
2021/06/30 06:05:46;;;;;;;77.57;34.88;;;;;;;20.06;82.92;100435.34;5052948;28;20033;-71
2021/06/30 06:08:11;;;;;;;76.35;35.00;;;;;;;19.88;82.22;100440.44;5035216;28;20092;-71
2021/06/30 06:10:37;;;;;;;74.75;34.25;;;;;;;20.08;82.74;100438.84;5052788;28;20055;-71
2021/06/30 06:13:03;;;;;;;73.63;34.17;;;;;;;19.97;82.63;100440.53;5051511;28;20078;-71
2021/06/30 06:15:28;;;;;;;67.45;33.03;;;;;;;20.11;82.65;100438.88;5051415;28;20173;-71
2021/06/30 06:17:54;;;;;;;62.72;31.38;;;;;;;20.21;81.26;100436.31;5053193;28;20478;-71
2021/06/30 06:20:20;;;;;;;74.93;34.17;;;;;;;20.13;81.21;100434.53;5051470;28;20028;-71
2021/06/30 06:22:45;;;;;;;66.10;32.58;;;;;;;20.20;80.92;100432.84;5034900;28;20183;-71
2021/06/30 06:25:11;;;;;;;76.35;33.80;;;;;;;20.24;81.45;100428.50;5052773;28;20020;-71
2021/06/30 06:27:38;;;;;;;76.97;35.47;;;;;;;20.42;80.77;100428.59;5052823;28;20096;-71
2021/06/30 06:30:06;;;;;;;65.47;33.22;;;;;;;20.58;79.71;100418.19;5052805;28;20055;-71
2021/06/30 06:32:33;;;;;;;62.78;32.70;;;;;;;20.61;79.61;100428.66;5051113;28;20032;-71
2021/06/30 06:34:58;;;;;;;61.80;33.28;;;;;;;20.59;78.90;100427.78;5051238;28;20427;-71
2021/06/30 06:37:24;;;;;;;62.13;31.98;;;;;;;20.43;79.28;100435.56;5052569;28;20029;-71
2021/06/30 06:39:50;;;;;;;56.90;29.85;;;;;;;20.31;79.58;100432.88;5051356;28;20032;-71
2021/06/30 06:42:15;;;;;;;58.63;30.75;;;;;;;20.28;80.37;100438.09;5051099;28;20036;-71
2021/06/30 06:44:41;;;;;;;52.30;28.50;;;;;;;20.26;79.70;100432.00;5051283;28;20027;-71
2021/06/30 06:47:07;;;;;;;47.75;27.95;;;;;;;20.29;80.28;100427.66;5034152;28;20163;-71
2021/06/30 06:49:33;;;;;;;53.97;28.95;;;;;;;20.18;79.79;100428.47;5051134;28;20070;-71
2021/06/30 06:52:00;;;;;;;51.75;28.73;;;;;;;20.15;80.90;100434.56;5051109;28;20051;-71
2021/06/30 06:54:26;;;;;;;49.00;27.45;;;;;;;20.07;80.59;100442.34;5052324;28;20025;-71
2021/06/30 06:56:51;;;;;;;48.83;28.55;;;;;;;20.07;80.28;100437.09;5052089;28;20025;-71
2021/06/30 06:59:17;;;;;;;53.25;27.00;;;;;;;19.91;80.32;100443.09;5051071;28;20025;-71
2021/06/30 07:01:42;;;;;;;49.42;27.17;;;;;;;19.77;81.89;100448.16;5052335;28;20086;-71
2021/06/30 07:04:08;;;;;;;55.80;29.42;;;;;;;19.78;82.05;100447.31;5052309;28;20466;-70
2021/06/30 07:06:33;;;;;;;51.40;28.42;;;;;;;19.78;82.78;100448.19;5052251;28;20435;-71
2021/06/30 07:08:59;;;;;;;51.20;26.77;;;;;;;19.80;81.99;100448.19;5051099;28;20029;-71
2021/06/30 07:11:25;;;;;;;46.75;25.83;;;;;;;19.81;81.98;100450.84;5052150;28;20112;-71
2021/06/30 07:13:51;;;;;;;47.78;28.58;;;;;;;19.82;81.35;100451.69;5051072;28;20111;-71
2021/06/30 07:16:17;;;;;;;51.75;26.75;;;;;;;19.87;81.07;100455.22;5050796;28;20059;-71
2021/06/30 07:18:43;;;;;;;47.83;29.00;;;;;;;19.99;80.68;100459.72;5053204;28;20033;-71
2021/06/30 07:21:09;;;;;;;43.88;25.80;;;;;;;20.29;80.40;100469.50;5056011;28;20094;-70
2021/06/30 07:23:35;;;;;;;48.13;27.65;;;;;;;20.47;78.32;100474.81;5054794;28;20387;-71
2021/06/30 07:26:02;;;;;;;47.30;26.83;;;;;;;20.71;77.43;100467.13;5056152;28;20427;-71
2021/06/30 07:28:27;;;;;;;39.08;24.33;;;;;;;20.72;75.44;100458.41;5055885;28;20029;-71
2021/06/30 07:30:53;;;;;;;36.30;22.02;;;;;;;20.75;74.62;100461.91;5054743;28;20082;-71
2021/06/30 07:33:19;;;;;;;35.60;22.70;;;;;;;20.89;74.96;100465.47;5054603;28;20074;-71
2021/06/30 07:35:44;;;;;;;33.55;22.58;;;;;;;21.07;73.69;100463.78;5054453;28;20021;-71
2021/06/30 07:38:10;;;;;;;37.42;24.17;;;;;;;21.14;74.99;100470.78;5054276;28;20025;-71
2021/06/30 07:40:36;;;;;;;39.53;25.23;;;;;;;21.04;74.72;100469.88;5055556;28;20021;-71
2021/06/30 07:43:03;;;;;;;41.80;25.42;;;;;;;21.09;74.10;100469.91;5055545;28;20461;-70
2021/06/30 07:45:28;;;;;;;38.83;25.27;;;;;;;21.01;74.97;100459.41;5055587;28;20036;-70
2021/06/30 07:47:54;;;;;;;39.33;23.85;;;;;;;20.98;74.70;100460.28;5054208;28;20020;-71
2021/06/30 07:50:20;;;;;;;38.40;24.48;;;;;;;20.87;74.90;100464.59;5055478;28;20025;-71
2021/06/30 07:52:48;;;;;;;38.10;25.48;;;;;;;20.77;75.41;100468.03;5054086;28;20443;-71
2021/06/30 07:55:17;;;;;;;35.45;23.33;;;;;;;20.71;75.02;100456.66;5055362;28;20040;-71
2021/06/30 07:57:43;;;;;;;40.80;26.23;;;;;;;20.49;75.90;100465.25;5054121;28;20104;-71
2021/06/30 08:00:09;;;;;;;44.30;26.88;;;;;;;20.58;78.16;100470.53;5054130;28;20033;-71
2021/06/30 08:02:36;;;;;;;44.65;26.30;;;;;;;20.51;76.38;100461.78;5053975;28;20029;-71
2021/06/30 08:05:06;;;;;;;46.20;26.40;;;;;;;20.62;76.39;100461.81;5046599;28;20025;-71
2021/06/30 08:07:32;;;;;;;44.47;27.92;;;;;;;20.31;77.80;100464.28;5057685;28;20057;-71
2021/06/30 08:09:58;;;;;;;43.42;27.63;;;;;;;20.47;78.50;100466.97;5054906;28;20015;-71
2021/06/30 08:12:24;;;;;;;45.95;28.65;;;;;;;20.57;78.54;100463.53;5052310;28;20021;-71
2021/06/30 08:14:49;;;;;;;43.55;27.23;;;;;;;20.53;78.25;100467.91;5047684;28;20020;-71
2021/06/30 08:17:15;;;;;;;39.70;26.17;;;;;;;20.49;77.73;100465.25;5054468;28;20071;-71
2021/06/30 08:19:41;;;;;;;43.80;26.42;;;;;;;20.51;78.36;100468.75;5063628;28;20021;-71
2021/06/30 08:22:10;;;;;;;46.78;27.70;;;;;;;20.63;78.01;100473.19;5061015;28;20043;-71
2021/06/30 08:24:43;;;;;;;43.60;26.25;;;;;;;20.63;77.43;100467.94;5063169;28;20058;-71
2021/06/30 08:27:09;;;;;;;39.53;25.55;;;;;;;20.66;76.50;100463.59;5052800;28;20032;-72
2021/06/30 08:29:35;;;;;;;40.78;26.42;;;;;;;20.58;77.16;100465.28;5047248;28;20036;-71
2021/06/30 08:32:01;;;;;;;40.92;26.27;;;;;;;20.62;76.43;100472.28;5053023;28;20078;-71
2021/06/30 08:34:27;;;;;;;39.72;25.35;;;;;;;20.61;77.04;100470.53;5049615;28;20482;-71
2021/06/30 08:36:58;;;;;;;42.78;26.20;;;;;;;20.51;77.63;100473.97;5061556;28;20078;-70
2021/06/30 08:39:24;;;;;;;38.90;26.30;;;;;;;20.48;78.02;100473.97;5047414;28;20115;-71
2021/06/30 08:41:50;;;;;;;39.38;26.20;;;;;;;20.33;77.65;100475.63;5052675;28;20052;-71
2021/06/30 08:44:15;;;;;;;40.88;27.02;;;;;;;20.36;78.33;100480.88;5053687;28;20029;-70
2021/06/30 08:46:41;;;;;;;42.63;27.65;;;;;;;20.31;78.24;100472.13;5043354;28;20029;-71
2021/06/30 08:49:08;;;;;;;43.35;26.50;;;;;;;20.33;78.69;100480.00;5034895;28;20438;-71
2021/06/30 08:51:33;;;;;;;45.15;26.60;;;;;;;20.28;78.23;100479.94;5034692;28;20506;-71
2021/06/30 08:54:02;;;;;;;46.65;28.17;;;;;;;19.81;79.46;100482.19;5052576;28;20029;-70
2021/06/30 08:56:31;;;;;;;46.65;29.27;;;;;;;19.90;80.54;100485.78;5038561;28;20116;-71
2021/06/30 08:58:58;;;;;;;46.35;28.33;;;;;;;19.94;79.78;100483.19;5059593;28;20071;-70
2021/06/30 09:01:26;;;;;;;45.88;28.00;;;;;;;19.91;79.61;100487.53;5052488;28;20469;-71
2021/06/30 09:03:54;;;;;;;52.30;29.58;;;;;;;20.05;79.33;100496.34;5039755;28;20029;-71
2021/06/30 09:06:20;;;;;;;47.25;27.77;;;;;;;20.00;79.05;100488.47;5061404;28;20053;-70
2021/06/30 09:08:46;;;;;;;40.42;25.88;;;;;;;20.17;78.42;100484.22;5050470;28;20087;-71
2021/06/30 09:11:17;;;;;;;40.15;26.65;;;;;;;20.22;77.95;100490.38;5051284;28;20024;-70
2021/06/30 09:13:42;;;;;;;41.13;25.83;;;;;;;20.23;77.72;100495.63;5060011;28;20029;-71
2021/06/30 09:16:08;;;;;;;44.53;26.77;;;;;;;20.12;77.49;100482.47;5034291;28;20045;-71
2021/06/30 09:18:39;;;;;;;44.00;26.13;;;;;;;20.17;78.73;100489.47;5062396;28;20028;-71
2021/06/30 09:21:16;;;;;;;46.53;26.80;;;;;;;20.02;78.80;100501.56;5052542;28;20017;-71
2021/06/30 09:24:01;;;;;;;42.10;27.17;;;;;;;20.22;78.34;100498.22;5060522;28;20028;-71
2021/06/30 09:26:30;;;;;;;43.15;26.58;;;;;;;20.05;79.19;100501.56;5062104;28;20078;-71
2021/06/30 09:29:10;;;;;;;45.72;27.35;;;;;;;20.22;78.98;100495.59;5044757;28;20029;-70
2021/06/30 09:31:37;;;;;;;44.55;27.60;;;;;;;20.27;77.67;100506.97;5033535;28;20283;-71
2021/06/30 09:34:04;;;;;;;44.03;26.55;;;;;;;20.43;78.05;100503.56;5034539;28;20036;-71
2021/06/30 09:36:33;;;;;;;41.33;25.55;;;;;;;20.43;77.45;100508.81;5034392;28;20033;-71
2021/06/30 09:39:12;;;;;;;36.90;25.02;;;;;;;20.24;76.99;100502.59;5033510;28;20115;-71
2021/06/30 09:41:39;;;;;;;40.35;24.85;;;;;;;19.95;78.08;100503.22;5033694;28;20056;-71
2021/06/30 09:44:06;;;;;;;40.45;24.55;;;;;;;20.06;78.00;100503.31;5037760;28;20094;-70
2021/06/30 09:46:33;;;;;;;40.35;26.13;;;;;;;20.49;76.95;100505.38;5062443;28;20059;-70
2021/06/30 09:49:01;;;;;;;42.65;26.30;;;;;;;20.60;76.30;100508.03;5060935;28;20024;-70
2021/06/30 09:51:27;;;;;;;43.15;28.08;;;;;;;21.06;73.92;100503.94;5032617;28;20051;-70
2021/06/30 09:53:53;;;;;;;37.92;24.63;;;;;;;21.48;72.88;100497.06;5052273;28;20056;-70
2021/06/30 09:56:35;;;;;;;40.33;25.45;;;;;;;21.85;71.63;100507.66;5063440;28;20048;-70
2021/06/30 09:59:09;;;;;;;42.47;26.45;;;;;;;22.08;71.42;100501.53;5054574;28;20024;-71
2021/06/30 10:01:38;;;;;;;43.00;27.48;;;;;;;22.06;70.67;100498.03;5049845;28;20027;-71
2021/06/30 10:04:04;;;;;;;46.35;29.02;;;;;;;21.48;71.75;100496.19;5049686;28;20033;-70
2021/06/30 10:06:36;;;;;;;46.92;29.42;;;;;;;21.08;73.89;100496.97;5043046;28;20116;-71
2021/06/30 10:09:06;;;;;;;44.28;28.45;;;;;;;21.28;72.99;100505.75;5040390;28;20037;-71
2021/06/30 10:11:34;;;;;;;45.55;29.85;;;;;;;21.38;72.32;100490.06;5016192;28;20016;-71
2021/06/30 10:14:01;;;;;;;42.20;27.52;;;;;;;21.94;71.30;100498.03;5030772;28;20075;-71
2021/06/30 10:16:27;;;;;;;42.95;28.50;;;;;;;22.54;69.30;100497.97;5026769;28;20055;-71
2021/06/30 10:18:55;;;;;;;41.47;27.95;;;;;;;22.45;66.80;100488.38;5028660;28;20029;-71
2021/06/30 10:21:24;;;;;;;45.28;28.92;;;;;;;21.70;70.08;100486.63;5019276;28;20498;-71
2021/06/30 10:23:50;;;;;;;44.92;28.33;;;;;;;21.60;70.46;100491.84;5027115;28;20064;-70
2021/06/30 10:26:19;;;;;;;40.42;27.00;;;;;;;21.88;68.95;100486.66;5028067;28;20619;-71
2021/06/30 10:28:47;;;;;;;43.70;28.80;;;;;;;21.94;68.40;100475.28;5026628;28;20106;-71
2021/06/30 10:31:12;;;;;;;42.60;27.15;;;;;;;22.65;66.98;100479.56;5034791;28;20492;-71
2021/06/30 10:33:39;;;;;;;41.08;25.88;;;;;;;23.32;65.76;100464.41;5033689;28;20055;-71
2021/06/30 10:36:08;;;;;;;39.58;24.65;;;;;;;23.58;64.31;100473.84;5027910;28;20075;-71
2021/06/30 10:38:56;;;;;;;;;;;;;;;23.46;63.56;100458.19;5026530;28;20036;-71
2021/06/30 10:41:43;;;;;;;39.63;25.67;;;;;;;23.75;63.98;100460.59;5028198;28;19909;-71
2021/06/30 10:44:10;;;;;;;36.83;25.85;;;;;;;23.63;64.04;100453.66;5030256;28;20022;-71
2021/06/30 10:46:36;;;;;;;41.58;26.17;;;;;;;23.87;62.86;100443.84;5030184;28;20035;-70
2021/06/30 10:49:28;;;;;;;35.25;25.40;;;;;;;24.03;61.78;100441.09;5027983;28;20026;-72
2021/06/30 10:52:01;;;;;;;37.70;25.98;;;;;;;23.91;63.66;100440.31;5028055;28;20026;-74
2021/06/30 10:54:33;;;;;;;39.80;25.45;;;;;;;23.30;64.28;100425.88;5028909;28;20025;-73
2021/06/30 10:57:18;;;;;;;33.58;24.27;;;;;;;24.02;62.64;100431.47;5032872;28;20040;-74
2021/06/30 11:00:03;;;;;;;38.97;26.73;;;;;;;23.99;61.83;100436.72;5031259;28;20025;-74
2021/06/30 11:02:33;;;;;;;34.70;23.65;;;;;;;24.46;60.85;100427.47;5030536;28;20021;-75
2021/06/30 11:05:14;;;;;;;36.58;23.50;;;;;;;24.89;60.15;100425.22;5034661;28;20037;-75
2021/06/30 11:07:42;;;;;;;37.85;24.77;;;;;;;24.18;60.28;100433.06;5033568;28;20022;-75
2021/06/30 11:10:22;;;;;;;33.83;24.02;;;;;;;25.04;59.01;100425.03;5034348;28;20097;-75